createdAt,value
2023-04-09T00:00:35.931Z,32.02
2023-04-09T00:01:36.018Z,32.03
2023-04-09T00:02:36.120Z,32.02
2023-04-09T00:03:36.261Z,32.03
2023-04-09T00:04:35.983Z,32.03
2023-04-09T00:05:36.026Z,32.02
2023-04-09T00:06:36.025Z,32.02
2023-04-09T00:07:36.016Z,31.99
2023-04-09T00:08:36.054Z,32.02
2023-04-09T00:09:37.038Z,32.03
2023-04-09T00:10:36.108Z,32.02
2023-04-09T00:11:36.068Z,32.00
2023-04-09T00:12:36.079Z,32.00
2023-04-09T00:13:39.605Z,32.02
2023-04-09T00:14:36.162Z,32.00
2023-04-09T00:15:36.143Z,32.02
2023-04-09T00:16:36.128Z,32.00
2023-04-09T00:17:36.152Z,32.03
2023-04-09T00:18:36.125Z,32.00
2023-04-09T00:19:36.104Z,32.02
2023-04-09T00:20:36.069Z,32.06
2023-04-09T00:21:36.083Z,32.02
2023-04-09T00:22:36.043Z,32.01
2023-04-09T00:23:36.057Z,32.00
2023-04-09T00:24:36.064Z,32.04
2023-04-09T00:25:36.035Z,32.03
2023-04-09T00:26:36.051Z,32.01
2023-04-09T00:27:36.011Z,32.00
2023-04-09T00:28:36.023Z,32.00
2023-04-09T00:29:36.022Z,31.99
2023-04-09T00:30:36.043Z,32.00
2023-04-09T00:31:35.999Z,32.02
2023-04-09T00:32:35.989Z,32.04
2023-04-09T00:33:36.080Z,32.01
2023-04-09T00:34:35.972Z,32.01
2023-04-09T00:35:35.989Z,32.03
2023-04-09T00:36:35.961Z,32.05
2023-04-09T00:37:35.985Z,32.03
2023-04-09T00:38:35.952Z,32.04
2023-04-09T00:39:35.921Z,32.03
2023-04-09T00:40:35.966Z,32.02
2023-04-09T00:41:35.942Z,32.04
2023-04-09T00:42:35.967Z,32.05
2023-04-09T00:43:35.930Z,32.03
2023-04-09T00:44:35.931Z,32.01
2023-04-09T00:45:35.978Z,32.05
2023-04-09T00:46:36.060Z,32.03
2023-04-09T00:47:36.029Z,32.00
2023-04-09T00:48:35.879Z,32.04
2023-04-09T00:49:35.871Z,32.06
2023-04-09T00:50:35.866Z,32.03
2023-04-09T00:51:35.898Z,32.03
2023-04-09T00:52:35.987Z,32.02
2023-04-09T00:53:35.902Z,32.01
2023-04-09T00:54:35.832Z,32.03
2023-04-09T00:55:35.865Z,32.03
2023-04-09T00:56:35.871Z,32.08
2023-04-09T00:57:35.889Z,32.04
2023-04-09T00:58:35.830Z,32.04
2023-04-09T00:59:35.781Z,32.07
2023-04-09T01:00:35.825Z,32.04
2023-04-09T01:01:35.997Z,32.03
2023-04-09T01:02:35.903Z,32.04
2023-04-09T01:03:35.914Z,32.07
2023-04-09T01:04:35.818Z,32.04
2023-04-09T01:05:35.762Z,32.06
2023-04-09T01:06:35.779Z,32.09
2023-04-09T01:07:35.782Z,32.05
2023-04-09T01:08:35.821Z,32.03
2023-04-09T01:09:35.848Z,32.05
2023-04-09T01:10:35.904Z,32.04
2023-04-09T01:11:35.940Z,32.08
2023-04-09T01:12:35.951Z,32.04
2023-04-09T01:13:35.954Z,32.08
2023-04-09T01:14:36.026Z,32.08
2023-04-09T01:15:36.030Z,32.04
2023-04-09T01:16:36.130Z,32.07
2023-04-09T01:17:36.129Z,32.06
2023-04-09T01:18:36.191Z,32.09
2023-04-09T01:19:36.176Z,32.07
2023-04-09T01:20:36.171Z,32.07
2023-04-09T01:21:36.258Z,32.09
2023-04-09T01:22:36.215Z,32.08
2023-04-09T01:23:36.302Z,32.06
2023-04-09T01:24:36.310Z,32.07
2023-04-09T01:25:36.312Z,32.08
2023-04-09T01:26:36.351Z,32.07
2023-04-09T01:27:36.440Z,32.06
2023-04-09T01:28:36.431Z,32.09
2023-04-09T01:29:36.450Z,32.07
2023-04-09T01:30:36.608Z,32.06
2023-04-09T01:31:36.477Z,32.08
2023-04-09T01:32:36.565Z,32.07
2023-04-09T01:33:36.566Z,32.07
2023-04-09T01:34:36.636Z,32.07
2023-04-09T01:35:36.659Z,32.08
2023-04-09T01:36:36.687Z,32.08
2023-04-09T01:37:36.695Z,32.07
2023-04-09T01:38:36.758Z,32.08
2023-04-09T01:39:36.765Z,32.08
2023-04-09T01:40:36.779Z,32.04
2023-04-09T01:41:36.817Z,32.07
2023-04-09T01:42:36.867Z,32.05
2023-04-09T01:43:36.939Z,32.06
2023-04-09T01:44:36.955Z,32.06
2023-04-09T01:45:37.012Z,32.07
2023-04-09T01:46:37.023Z,32.10
2023-04-09T01:47:37.076Z,32.08
2023-04-09T01:48:37.086Z,32.06
2023-04-09T01:49:37.130Z,32.05
2023-04-09T01:50:37.146Z,32.08
2023-04-09T01:51:37.212Z,32.07
2023-04-09T01:52:37.207Z,32.09
2023-04-09T01:53:37.243Z,32.07
2023-04-09T01:54:37.368Z,32.09
2023-04-09T01:55:37.280Z,32.11
2023-04-09T01:56:37.351Z,32.11
2023-04-09T01:57:37.396Z,32.06
2023-04-09T01:58:37.451Z,32.08
2023-04-09T01:59:37.459Z,32.08
2023-04-09T02:00:37.524Z,32.09
2023-04-09T02:01:37.577Z,32.09
2023-04-09T02:02:37.660Z,32.09
2023-04-09T02:03:37.675Z,32.05
2023-04-09T02:04:37.706Z,32.07
2023-04-09T02:05:37.631Z,32.08
2023-04-09T02:06:37.660Z,32.07
2023-04-09T02:07:37.719Z,32.06
2023-04-09T02:08:37.742Z,32.09
2023-04-09T02:09:37.782Z,32.09
2023-04-09T02:10:37.802Z,32.08
2023-04-09T02:11:37.858Z,32.08
2023-04-09T02:12:37.924Z,32.08
2023-04-09T02:13:37.893Z,32.09
2023-04-09T02:14:37.933Z,32.09
2023-04-09T02:15:38.004Z,32.08
2023-04-09T02:16:38.013Z,32.09
2023-04-09T02:17:38.035Z,32.08
2023-04-09T02:18:38.121Z,32.09
2023-04-09T02:19:38.104Z,32.10
2023-04-09T02:20:38.176Z,32.10
2023-04-09T02:21:38.224Z,32.12
2023-04-09T02:22:38.235Z,32.14
2023-04-09T02:23:38.264Z,32.11
2023-04-09T02:24:38.344Z,32.09
2023-04-09T02:25:38.430Z,32.10
2023-04-09T02:26:38.418Z,32.12
2023-04-09T02:27:38.476Z,32.09
2023-04-09T02:28:38.478Z,32.10
2023-04-09T02:29:38.563Z,32.10
2023-04-09T02:30:38.542Z,32.12
2023-04-09T02:31:38.599Z,32.12
2023-04-09T02:32:38.628Z,32.10
2023-04-09T02:33:38.721Z,32.11
2023-04-09T02:34:38.727Z,32.10
2023-04-09T02:35:38.747Z,32.09
2023-04-09T02:36:38.845Z,32.07
2023-04-09T02:37:38.808Z,32.11
2023-04-09T02:38:38.917Z,32.12
2023-04-09T02:39:38.970Z,32.11
2023-04-09T02:40:38.987Z,32.09
2023-04-09T02:41:39.039Z,32.08
2023-04-09T02:42:39.006Z,32.08
2023-04-09T02:43:39.087Z,32.10
2023-04-09T02:44:39.114Z,32.07
2023-04-09T02:45:39.151Z,32.09
2023-04-09T02:46:39.267Z,32.11
2023-04-09T02:47:39.227Z,32.12
2023-04-09T02:48:39.227Z,32.10
2023-04-09T02:49:39.336Z,32.13
2023-04-09T02:50:39.349Z,32.11
2023-04-09T02:51:39.358Z,32.11
2023-04-09T02:52:39.413Z,32.13
2023-04-09T02:53:39.390Z,32.09
2023-04-09T02:54:39.484Z,32.12
2023-04-09T02:55:39.541Z,32.13
2023-04-09T02:56:39.539Z,32.13
2023-04-09T02:57:39.622Z,32.12
2023-04-09T02:58:39.599Z,32.14
2023-04-09T02:59:39.654Z,32.12
2023-04-09T03:00:39.776Z,32.10
2023-04-09T03:01:39.830Z,32.11
2023-04-09T03:02:39.823Z,32.10
2023-04-09T03:03:40.114Z,32.11
2023-04-09T03:04:39.807Z,32.13
2023-04-09T03:05:39.919Z,32.14
2023-04-09T03:06:39.893Z,32.14
2023-04-09T03:07:39.975Z,32.13
2023-04-09T03:08:39.980Z,32.11
2023-04-09T03:09:40.048Z,32.12
2023-04-09T03:10:40.105Z,32.15
2023-04-09T03:11:40.099Z,32.14
2023-04-09T03:12:40.175Z,32.12
2023-04-09T03:13:40.224Z,32.13
2023-04-09T03:14:40.234Z,32.13
2023-04-09T03:15:40.367Z,32.13
2023-04-09T03:16:40.300Z,32.10
2023-04-09T03:17:40.379Z,32.10
2023-04-09T03:18:40.406Z,32.12
2023-04-09T03:19:40.429Z,32.12
2023-04-09T03:20:40.468Z,32.11
2023-04-09T03:21:40.532Z,32.14
2023-04-09T03:22:41.052Z,32.14
2023-04-09T03:23:40.623Z,32.14
2023-04-09T03:24:40.669Z,32.15
2023-04-09T03:25:40.699Z,32.14
2023-04-09T03:26:40.735Z,32.12
2023-04-09T03:27:40.775Z,32.11
2023-04-09T03:28:40.836Z,32.09
2023-04-09T03:29:40.921Z,32.11
2023-04-09T03:30:40.889Z,32.15
2023-04-09T03:31:41.106Z,32.12
2023-04-09T03:32:41.148Z,32.13
2023-04-09T03:33:41.077Z,32.16
2023-04-09T03:34:41.086Z,32.12
2023-04-09T03:35:41.124Z,32.15
2023-04-09T03:36:41.203Z,32.15
2023-04-09T03:37:41.261Z,32.14
2023-04-09T03:38:41.268Z,32.16
2023-04-09T03:39:41.330Z,32.14
2023-04-09T03:40:41.377Z,32.13
2023-04-09T03:41:41.377Z,32.11
2023-04-09T03:42:41.445Z,32.11
2023-04-09T03:43:41.506Z,32.16
2023-04-09T03:44:41.513Z,32.13
2023-04-09T03:45:41.564Z,32.13
2023-04-09T03:46:41.721Z,32.15
2023-04-09T03:47:41.688Z,32.12
2023-04-09T03:48:41.792Z,32.14
2023-04-09T03:49:41.801Z,32.15
2023-04-09T03:50:41.859Z,32.13
2023-04-09T03:51:41.923Z,32.13
2023-04-09T03:52:41.924Z,32.14
2023-04-09T03:53:41.984Z,32.15
2023-04-09T03:54:41.989Z,32.13
2023-04-09T03:55:42.018Z,32.15
2023-04-09T03:56:42.099Z,32.16
2023-04-09T03:57:42.162Z,32.15
2023-04-09T03:58:42.187Z,32.15
2023-04-09T03:59:42.305Z,32.15
2023-04-09T04:00:42.231Z,32.16
2023-04-09T04:01:42.487Z,32.17
2023-04-09T04:02:42.706Z,32.15
2023-04-09T04:03:42.620Z,32.13
2023-04-09T04:04:42.507Z,32.13
2023-04-09T04:05:42.514Z,32.16
2023-04-09T04:06:42.572Z,32.17
2023-04-09T04:07:42.654Z,32.15
2023-04-09T04:08:42.642Z,32.13
2023-04-09T04:09:42.796Z,32.13
2023-04-09T04:10:42.764Z,32.13
2023-04-09T04:11:42.770Z,32.13
2023-04-09T04:12:42.830Z,32.14
2023-04-09T04:13:42.873Z,32.16
2023-04-09T04:14:42.945Z,32.14
2023-04-09T04:15:43.035Z,32.14
2023-04-09T04:16:43.145Z,32.17
2023-04-09T04:17:43.062Z,32.15
2023-04-09T04:18:43.124Z,32.16
2023-04-09T04:19:43.170Z,32.14
2023-04-09T04:20:43.247Z,32.15
2023-04-09T04:21:43.242Z,32.16
2023-04-09T04:22:43.356Z,32.16
2023-04-09T04:23:43.372Z,32.16
2023-04-09T04:24:43.363Z,32.15
2023-04-09T04:25:43.468Z,32.16
2023-04-09T04:26:43.491Z,32.16
2023-04-09T04:27:43.544Z,32.15
2023-04-09T04:28:43.615Z,32.13
2023-04-09T04:29:43.649Z,32.15
2023-04-09T04:30:43.664Z,32.18
2023-04-09T04:31:43.807Z,32.19
2023-04-09T04:32:43.811Z,32.16
2023-04-09T04:33:43.819Z,32.14
2023-04-09T04:34:43.854Z,32.18
2023-04-09T04:35:43.910Z,32.16
2023-04-09T04:36:43.952Z,32.15
2023-04-09T04:37:43.959Z,32.16
2023-04-09T04:38:44.023Z,32.20
2023-04-09T04:39:44.084Z,32.18
2023-04-09T04:40:44.144Z,32.16
2023-04-09T04:41:44.162Z,32.14
2023-04-09T04:42:44.212Z,32.16
2023-04-09T04:43:44.252Z,32.16
2023-04-09T04:44:44.321Z,32.17
2023-04-09T04:45:44.416Z,32.21
2023-04-09T04:46:44.437Z,32.18
2023-04-09T04:47:44.489Z,32.16
2023-04-09T04:48:44.493Z,32.19
2023-04-09T04:49:44.563Z,32.15
2023-04-09T04:50:44.621Z,32.20
2023-04-09T04:51:44.672Z,32.19
2023-04-09T04:52:44.694Z,32.17
2023-04-09T04:53:44.729Z,32.18
2023-04-09T04:54:44.796Z,32.17
2023-04-09T04:55:44.856Z,32.16
2023-04-09T04:56:44.921Z,32.19
2023-04-09T04:57:44.978Z,32.16
2023-04-09T04:58:45.028Z,32.18
2023-04-09T04:59:45.047Z,32.17
2023-04-09T05:00:45.196Z,32.20
2023-04-09T05:01:45.217Z,32.20
2023-04-09T05:02:45.261Z,32.21
2023-04-09T05:03:45.356Z,32.19
2023-04-09T05:04:45.285Z,32.18
2023-04-09T05:05:45.330Z,32.17
2023-04-09T05:06:45.411Z,32.20
2023-04-09T05:07:45.458Z,32.18
2023-04-09T05:08:45.445Z,32.17
2023-04-09T05:09:45.532Z,32.18
2023-04-09T05:10:45.564Z,32.16
2023-04-09T05:11:45.633Z,32.17
2023-04-09T05:12:45.648Z,32.15
2023-04-09T05:13:45.696Z,32.21
2023-04-09T05:14:45.758Z,32.16
2023-04-09T05:15:45.810Z,32.14
2023-04-09T05:16:45.914Z,32.17
2023-04-09T05:17:45.941Z,32.16
2023-04-09T05:18:45.990Z,32.17
2023-04-09T05:19:45.990Z,32.18
2023-04-09T05:20:46.058Z,32.17
2023-04-09T05:21:47.216Z,32.18
2023-04-09T05:22:46.165Z,32.16
2023-04-09T05:23:46.226Z,32.18
2023-04-09T05:24:46.231Z,32.20
2023-04-09T05:25:46.284Z,32.16
2023-04-09T05:26:46.359Z,32.18
2023-04-09T05:27:46.350Z,32.17
2023-04-09T05:28:46.494Z,32.14
2023-04-09T05:29:46.475Z,32.18
2023-04-09T05:30:46.534Z,32.19
2023-04-09T05:31:46.586Z,32.21
2023-04-09T05:32:46.691Z,32.17
2023-04-09T05:33:46.714Z,32.16
2023-04-09T05:34:46.711Z,32.17
2023-04-09T05:35:46.828Z,32.16
2023-04-09T05:36:46.837Z,32.18
2023-04-09T05:37:46.869Z,32.15
2023-04-09T05:38:46.951Z,32.16
2023-04-09T05:39:46.995Z,32.16
2023-04-09T05:40:47.048Z,32.17
2023-04-09T05:41:47.061Z,32.14
2023-04-09T05:42:47.183Z,32.18
2023-04-09T05:43:47.182Z,32.18
2023-04-09T05:44:47.238Z,32.15
2023-04-09T05:45:47.304Z,32.16
2023-04-09T05:46:47.366Z,32.14
2023-04-09T05:47:47.430Z,32.20
2023-04-09T05:48:47.458Z,32.14
2023-04-09T05:49:47.536Z,32.17
2023-04-09T05:50:55.239Z,32.14
2023-04-09T05:51:48.569Z,32.17
2023-04-09T05:52:47.507Z,32.16
2023-04-09T05:53:47.518Z,32.17
2023-04-09T05:54:47.506Z,32.15
2023-04-09T05:55:47.511Z,32.12
2023-04-09T05:56:47.528Z,32.18
2023-04-09T05:57:47.487Z,32.15
2023-04-09T05:58:47.501Z,32.15
2023-04-09T05:59:47.507Z,32.14
2023-04-09T06:00:47.458Z,32.15
2023-04-09T06:01:47.563Z,32.15
2023-04-09T06:02:47.646Z,32.15
2023-04-09T06:03:47.776Z,32.12
2023-04-09T06:04:47.685Z,32.15
2023-04-09T06:05:47.745Z,32.16
2023-04-09T06:06:47.753Z,32.15
2023-04-09T06:07:47.798Z,32.13
2023-04-09T06:08:47.876Z,32.12
2023-04-09T06:09:47.915Z,32.13
2023-04-09T06:10:48.003Z,32.12
2023-04-09T06:11:48.009Z,32.14
2023-04-09T06:12:48.055Z,32.12
2023-04-09T06:13:48.103Z,32.14
2023-04-09T06:14:48.156Z,32.13
2023-04-09T06:15:48.392Z,32.12
2023-04-09T06:16:48.280Z,32.13
2023-04-09T06:17:48.381Z,32.19
2023-04-09T06:18:48.338Z,32.14
2023-04-09T06:19:48.412Z,32.13
2023-04-09T06:20:48.439Z,32.11
2023-04-09T06:21:48.511Z,32.13
2023-04-09T06:22:48.590Z,32.13
2023-04-09T06:23:48.637Z,32.14
2023-04-09T06:24:48.639Z,32.14
2023-04-09T06:25:48.692Z,32.14
2023-04-09T06:26:48.751Z,32.16
2023-04-09T06:27:48.815Z,32.15
2023-04-09T06:28:48.861Z,32.10
2023-04-09T06:29:48.869Z,32.12
2023-04-09T06:30:48.997Z,32.12
2023-04-09T06:31:49.000Z,32.14
2023-04-09T06:32:54.530Z,32.15
2023-04-09T06:33:50.136Z,32.16
2023-04-09T06:34:49.018Z,32.13
2023-04-09T06:35:49.017Z,32.16
2023-04-09T06:36:48.987Z,32.14
2023-04-09T06:37:49.039Z,32.14
2023-04-09T06:38:49.002Z,32.15
2023-04-09T06:40:00.301Z,32.15
2023-04-09T06:40:49.963Z,32.16
2023-04-09T06:41:48.953Z,32.16
2023-04-09T06:42:48.963Z,32.14
2023-04-09T06:43:49.037Z,32.14
2023-04-09T06:44:48.929Z,32.12
2023-04-09T06:45:48.937Z,32.17
2023-04-09T06:46:49.373Z,32.14
2023-04-09T06:47:49.008Z,32.15
2023-04-09T06:48:48.894Z,32.14
2023-04-09T06:49:48.901Z,32.14
2023-04-09T06:50:48.908Z,32.15
2023-04-09T06:51:48.926Z,32.12
2023-04-09T06:52:48.984Z,32.13
2023-04-09T06:53:49.094Z,32.11
2023-04-09T06:54:49.037Z,32.13
2023-04-09T06:55:49.114Z,32.13
2023-04-09T06:56:49.166Z,32.11
2023-04-09T06:57:49.202Z,32.13
2023-04-09T06:58:49.268Z,32.14
2023-04-09T06:59:49.271Z,32.12
2023-04-09T07:00:49.310Z,32.13
2023-04-09T07:01:50.028Z,32.10
2023-04-09T07:02:49.652Z,32.10
2023-04-09T07:03:49.615Z,32.11
2023-04-09T07:04:49.550Z,32.10
2023-04-09T07:05:49.587Z,32.11
2023-04-09T07:06:49.601Z,32.09
2023-04-09T07:07:49.636Z,32.12
2023-04-09T07:08:49.720Z,32.13
2023-04-09T07:09:49.717Z,32.11
2023-04-09T07:10:49.750Z,32.10
2023-04-09T07:11:49.833Z,32.09
2023-04-09T07:12:49.890Z,32.09
2023-04-09T07:13:49.948Z,32.08
2023-04-09T07:14:49.953Z,32.10
2023-04-09T07:15:50.033Z,32.09
2023-04-09T07:16:50.074Z,32.10
2023-04-09T07:17:50.133Z,32.08
2023-04-09T07:18:50.119Z,32.04
2023-04-09T07:19:50.180Z,32.04
2023-04-09T07:20:50.199Z,32.03
2023-04-09T07:21:50.259Z,32.04
2023-04-09T07:22:50.288Z,32.04
2023-04-09T07:23:50.556Z,32.05
2023-04-09T07:24:50.366Z,32.03
2023-04-09T07:25:50.434Z,32.04
2023-04-09T07:26:52.048Z,32.03
2023-04-09T07:27:50.483Z,32.04
2023-04-09T07:28:50.563Z,32.01
2023-04-09T07:29:50.574Z,32.01
2023-04-09T07:30:50.636Z,32.07
2023-04-09T07:31:50.810Z,32.03
2023-04-09T07:32:50.818Z,32.01
2023-04-09T07:33:51.365Z,32.05
2023-04-09T07:34:50.804Z,32.03
2023-04-09T07:35:50.855Z,32.03
2023-04-09T07:36:50.850Z,32.01
2023-04-09T07:37:50.865Z,32.02
2023-04-09T07:38:51.240Z,32.03
2023-04-09T07:39:50.987Z,32.00
2023-04-09T07:40:51.104Z,32.00
2023-04-09T07:41:51.068Z,32.02
2023-04-09T07:42:51.094Z,32.02
2023-04-09T07:43:51.103Z,31.99
2023-04-09T07:44:51.182Z,32.03
2023-04-09T07:45:51.191Z,32.01
2023-04-09T07:46:51.290Z,32.02
2023-04-09T07:47:51.328Z,32.00
2023-04-09T07:48:51.512Z,32.00
2023-04-09T07:49:51.360Z,32.01
2023-04-09T07:50:51.644Z,32.01
2023-04-09T07:51:51.482Z,32.01
2023-04-09T07:52:51.537Z,32.01
2023-04-09T07:53:51.564Z,32.01
2023-04-09T07:54:51.560Z,32.04
2023-04-09T07:55:51.602Z,32.00
2023-04-09T07:56:51.685Z,32.00
2023-04-09T07:57:51.688Z,32.00
2023-04-09T07:58:51.906Z,32.01
2023-04-09T07:59:51.747Z,32.00
2023-04-09T08:00:51.800Z,31.98
2023-04-09T08:01:51.941Z,31.97
2023-04-09T08:03:52.143Z,31.96
2023-04-09T08:04:52.018Z,31.97
2023-04-09T08:05:51.987Z,31.94
2023-04-09T08:06:51.972Z,31.95
2023-04-09T08:07:52.017Z,31.95
2023-04-09T08:08:52.363Z,31.95
2023-04-09T08:09:52.100Z,31.94
2023-04-09T08:10:52.185Z,31.94
2023-04-09T08:11:52.197Z,31.96
2023-04-09T08:12:52.195Z,31.95
2023-04-09T08:13:52.245Z,31.93
2023-04-09T08:14:52.338Z,31.92
2023-04-09T08:15:52.317Z,31.94
2023-04-09T08:16:52.368Z,31.92
2023-04-09T08:17:52.400Z,31.89
2023-04-09T08:18:52.606Z,31.87
2023-04-09T08:19:52.412Z,31.91
2023-04-09T08:20:52.504Z,31.90
2023-04-09T08:21:52.474Z,31.93
2023-04-09T08:22:52.504Z,31.87
2023-04-09T08:23:52.578Z,31.90
2023-04-09T08:24:52.594Z,31.87
2023-04-09T08:25:52.591Z,31.86
2023-04-09T08:26:52.590Z,31.84
2023-04-09T08:27:52.643Z,31.83
2023-04-09T08:28:52.884Z,31.85
2023-04-09T08:29:52.722Z,31.82
2023-04-09T08:30:52.684Z,31.81
2023-04-09T08:31:52.815Z,31.82
2023-04-09T08:32:52.782Z,31.84
2023-04-09T08:33:52.776Z,31.80
2023-04-09T08:34:52.800Z,31.79
2023-04-09T08:35:52.802Z,31.77
2023-04-09T08:36:52.943Z,31.76
2023-04-09T08:37:52.872Z,31.78
2023-04-09T08:38:53.122Z,31.80
2023-04-09T08:39:52.844Z,31.76
2023-04-09T08:40:52.898Z,31.76
2023-04-09T08:41:52.911Z,31.76
2023-04-09T08:42:52.951Z,31.76
2023-04-09T08:43:58.420Z,31.78
2023-04-09T08:44:53.956Z,31.77
2023-04-09T08:45:52.944Z,31.75
2023-04-09T08:46:52.972Z,31.76
2023-04-09T08:47:53.074Z,31.77
2023-04-09T08:48:53.359Z,31.77
2023-04-09T08:49:52.881Z,31.75
2023-04-09T08:50:52.901Z,31.76
2023-04-09T08:51:52.894Z,31.74
2023-04-09T08:52:52.878Z,31.73
2023-04-09T08:53:52.885Z,31.73
2023-04-09T08:54:52.896Z,31.76
2023-04-09T08:55:52.899Z,31.75
2023-04-09T08:56:52.908Z,31.71
2023-04-09T08:57:52.857Z,31.70
2023-04-09T08:58:53.243Z,31.70
2023-04-09T08:59:52.861Z,31.69
2023-04-09T09:00:52.840Z,31.67
2023-04-09T09:01:52.948Z,31.70
2023-04-09T09:02:52.958Z,31.70
2023-04-09T09:03:52.920Z,31.71
2023-04-09T09:04:52.807Z,31.70
2023-04-09T09:05:52.795Z,31.67
2023-04-09T09:06:54.166Z,31.69
2023-04-09T09:07:52.908Z,31.68
2023-04-09T09:08:53.021Z,31.67
2023-04-09T09:09:52.933Z,31.65
2023-04-09T09:10:52.944Z,31.66
2023-04-09T09:11:52.899Z,31.63
2023-04-09T09:12:52.919Z,31.65
2023-04-09T09:13:52.913Z,31.64
2023-04-09T09:14:52.924Z,31.59
2023-04-09T09:15:52.936Z,31.61
2023-04-09T09:16:52.957Z,31.63
2023-04-09T09:17:53.002Z,31.61
2023-04-09T09:18:53.460Z,31.60
2023-04-09T09:19:52.919Z,31.62
2023-04-09T09:20:52.934Z,31.60
2023-04-09T09:21:52.946Z,31.57
2023-04-09T09:22:55.064Z,31.58
2023-04-09T09:23:53.107Z,31.58
2023-04-09T09:24:53.096Z,31.57
2023-04-09T09:25:53.098Z,31.58
2023-04-09T09:26:53.122Z,31.56
2023-04-09T09:27:53.125Z,31.58
2023-04-09T09:28:53.279Z,31.55
2023-04-09T09:29:53.089Z,31.53
2023-04-09T09:30:53.117Z,31.53
2023-04-09T09:31:53.055Z,31.51
2023-04-09T09:32:53.081Z,31.52
2023-04-09T09:33:53.072Z,31.50
2023-04-09T09:34:53.047Z,31.47
2023-04-09T09:35:53.241Z,31.48
2023-04-09T09:36:53.104Z,31.47
2023-04-09T09:37:53.072Z,31.45
2023-04-09T09:38:53.262Z,31.44
2023-04-09T09:39:53.113Z,31.43
2023-04-09T09:40:53.182Z,31.44
2023-04-09T09:41:53.187Z,31.41
2023-04-09T09:42:53.196Z,31.40
2023-04-09T09:43:53.223Z,31.38
2023-04-09T09:44:53.239Z,31.39
2023-04-09T09:45:53.251Z,31.38
2023-04-09T09:46:53.240Z,31.36
2023-04-09T09:47:53.302Z,31.38
2023-04-09T09:48:53.503Z,31.40
2023-04-09T09:49:53.366Z,31.38
2023-04-09T09:50:53.393Z,31.35
2023-04-09T09:51:53.480Z,31.36
2023-04-09T09:52:53.508Z,31.34
2023-04-09T09:53:53.551Z,31.31
2023-04-09T09:54:53.690Z,31.29
2023-04-09T09:55:53.658Z,31.33
2023-04-09T09:56:53.684Z,31.30
2023-04-09T09:57:53.694Z,31.30
2023-04-09T09:58:54.084Z,31.31
2023-04-09T09:59:53.863Z,31.30
2023-04-09T10:00:53.904Z,31.26
2023-04-09T10:01:54.013Z,31.26
2023-04-09T10:02:54.073Z,31.27
2023-04-09T10:03:54.025Z,31.28
2023-04-09T10:04:54.180Z,31.26
2023-04-09T10:05:54.201Z,31.28
2023-04-09T10:06:54.248Z,31.24
2023-04-09T10:07:54.310Z,31.23
2023-04-09T10:08:54.387Z,31.22
2023-04-09T10:09:54.443Z,31.25
2023-04-09T10:10:54.479Z,31.25
2023-04-09T10:11:54.572Z,31.23
2023-04-09T10:12:54.611Z,31.24
2023-04-09T10:13:54.804Z,31.24
2023-04-09T10:14:54.748Z,31.20
2023-04-09T10:15:54.808Z,31.21
2023-04-09T10:16:55.660Z,31.21
2023-04-09T10:17:54.944Z,31.19
2023-04-09T10:18:55.030Z,31.19
2023-04-09T10:19:55.056Z,31.20
2023-04-09T10:20:55.134Z,31.21
2023-04-09T10:21:55.178Z,31.21
2023-04-09T10:22:55.248Z,31.20
2023-04-09T10:23:55.265Z,31.21
2023-04-09T10:24:55.340Z,31.19
2023-04-09T10:25:55.381Z,31.21
2023-04-09T10:26:55.467Z,31.18
2023-04-09T10:27:55.513Z,31.18
2023-04-09T10:28:55.601Z,31.17
2023-04-09T10:29:55.623Z,31.16
2023-04-09T10:30:55.711Z,31.16
2023-04-09T10:31:55.732Z,31.15
2023-04-09T10:32:55.844Z,31.16
2023-04-09T10:33:55.886Z,31.13
2023-04-09T10:34:55.936Z,31.14
2023-04-09T10:35:55.990Z,31.14
2023-04-09T10:36:56.045Z,31.13
2023-04-09T10:37:56.097Z,31.14
2023-04-09T10:38:56.120Z,31.13
2023-04-09T10:39:56.217Z,31.12
2023-04-09T10:40:56.263Z,31.11
2023-04-09T10:41:56.297Z,31.10
2023-04-09T10:42:56.333Z,31.08
2023-04-09T10:43:56.413Z,31.07
2023-04-09T10:44:56.454Z,31.06
2023-04-09T10:45:56.540Z,31.05
2023-04-09T10:46:56.594Z,31.04
2023-04-09T10:47:56.697Z,31.08
2023-04-09T10:48:56.672Z,31.04
2023-04-09T10:49:56.696Z,31.06
2023-04-09T10:50:56.704Z,31.05
2023-04-09T10:51:56.778Z,31.02
2023-04-09T10:52:56.865Z,31.02
2023-04-09T10:53:56.900Z,31.01
2023-04-09T10:54:56.907Z,31.01
2023-04-09T10:55:57.035Z,31.00
2023-04-09T10:56:57.021Z,30.99
2023-04-09T10:57:57.136Z,30.98
2023-04-09T10:58:57.133Z,30.96
2023-04-09T10:59:57.159Z,30.96
2023-04-09T11:00:57.257Z,30.97
2023-04-09T11:01:57.293Z,30.97
2023-04-09T11:02:57.429Z,30.97
2023-04-09T11:03:57.381Z,30.99
2023-04-09T11:04:57.424Z,31.01
2023-04-09T11:05:57.441Z,31.01
2023-04-09T11:06:57.497Z,31.02
2023-04-09T11:07:57.559Z,31.04
2023-04-09T11:08:57.584Z,31.02
2023-04-09T11:09:57.628Z,31.04
2023-04-09T11:10:57.649Z,30.99
2023-04-09T11:11:57.655Z,31.03
2023-04-09T11:12:57.743Z,31.02
2023-04-09T11:13:57.753Z,31.04
2023-04-09T11:14:57.798Z,31.02
2023-04-09T11:15:57.880Z,31.02
2023-04-09T11:16:57.809Z,30.98
2023-04-09T11:17:57.953Z,31.00
2023-04-09T11:18:57.929Z,30.99
2023-04-09T11:19:57.907Z,30.98
2023-04-09T11:20:57.986Z,30.97
2023-04-09T11:21:58.000Z,30.98
2023-04-09T11:22:58.016Z,30.98
2023-04-09T11:23:58.074Z,30.94
2023-04-09T11:24:58.099Z,30.91
2023-04-09T11:25:58.139Z,30.94
2023-04-09T11:26:58.148Z,30.95
2023-04-09T11:27:58.142Z,30.95
2023-04-09T11:28:58.198Z,30.98
2023-04-09T11:29:58.194Z,30.97
2023-04-09T11:30:58.237Z,30.96
2023-04-09T11:31:58.367Z,30.93
2023-04-09T11:32:58.357Z,30.91
2023-04-09T11:33:58.310Z,30.90
2023-04-09T11:34:58.339Z,30.90
2023-04-09T11:35:58.428Z,30.88
2023-04-09T11:36:58.391Z,30.87
2023-04-09T11:37:58.424Z,30.89
2023-04-09T11:38:58.427Z,30.87
2023-04-09T11:39:58.403Z,30.86
2023-04-09T11:40:58.491Z,30.88
2023-04-09T11:41:58.476Z,30.88
2023-04-09T11:42:58.560Z,30.88
2023-04-09T11:43:58.496Z,30.88
2023-04-09T11:44:58.517Z,30.89
2023-04-09T11:45:58.579Z,30.89
2023-04-09T11:46:58.593Z,30.88
2023-04-09T11:47:58.702Z,30.90
2023-04-09T11:48:58.621Z,30.85
2023-04-09T11:49:58.611Z,30.89
2023-04-09T11:50:58.615Z,30.89
2023-04-09T11:51:58.546Z,30.92
2023-04-09T11:52:58.631Z,30.89
2023-04-09T11:53:58.635Z,30.90
2023-04-09T11:54:58.648Z,30.91
2023-04-09T11:55:58.749Z,30.92
2023-04-09T11:56:58.595Z,30.92
2023-04-09T11:57:58.684Z,30.91
2023-04-09T11:58:58.605Z,30.93
2023-04-09T11:59:58.679Z,30.94
2023-04-09T12:00:58.696Z,30.93
2023-04-09T12:01:58.788Z,30.89
2023-04-09T12:02:58.921Z,30.89
2023-04-09T12:03:58.840Z,30.88
2023-04-09T12:04:58.669Z,30.87
2023-04-09T12:05:59.370Z,30.87
2023-04-09T12:06:58.650Z,30.89
2023-04-09T12:07:58.622Z,30.88
2023-04-09T12:08:58.680Z,30.89
2023-04-09T12:09:58.644Z,30.86
2023-04-09T12:10:58.652Z,30.87
2023-04-09T12:11:58.656Z,30.86
2023-04-09T12:12:58.666Z,30.89
2023-04-09T12:13:58.666Z,30.88
2023-04-09T12:14:58.617Z,30.90
2023-04-09T12:15:59.189Z,30.84
2023-04-09T12:16:58.752Z,30.84
2023-04-09T12:17:58.668Z,30.81
2023-04-09T12:18:58.651Z,30.83
2023-04-09T12:19:58.697Z,30.85
2023-04-09T12:20:58.650Z,30.83
2023-04-09T12:21:58.640Z,30.85
2023-04-09T12:22:58.620Z,30.85
2023-04-09T12:23:58.630Z,30.84
2023-04-09T12:24:58.649Z,30.85
2023-04-09T12:25:58.639Z,30.78
2023-04-09T12:26:58.670Z,30.83
2023-04-09T12:27:58.610Z,30.83
2023-04-09T12:28:58.628Z,30.81
2023-04-09T12:29:58.605Z,30.86
2023-04-09T12:30:58.674Z,30.78
2023-04-09T12:31:58.738Z,30.78
2023-04-09T12:32:58.738Z,30.75
2023-04-09T12:33:58.694Z,30.80
2023-04-09T12:34:58.719Z,30.80
2023-04-09T12:35:58.777Z,30.80
2023-04-09T12:36:58.724Z,30.78
2023-04-09T12:37:58.778Z,30.80
2023-04-09T12:38:58.780Z,30.79
2023-04-09T12:39:58.753Z,30.83
2023-04-09T12:40:58.747Z,30.83
2023-04-09T12:41:58.805Z,30.79
2023-04-09T12:42:58.866Z,30.78
2023-04-09T12:43:58.875Z,30.79
2023-04-09T12:44:58.915Z,30.83
2023-04-09T12:45:58.959Z,30.85
2023-04-09T12:46:58.933Z,30.79
2023-04-09T12:47:59.043Z,30.78
2023-04-09T12:48:59.056Z,30.71
2023-04-09T12:49:59.212Z,30.69
2023-04-09T12:50:59.125Z,30.68
2023-04-09T12:51:59.135Z,30.66
2023-04-09T12:52:59.181Z,30.59
2023-04-09T12:53:59.183Z,30.57